Time;durP1;ratioP1;P1;durP2;ratioP2;P2;SDS_P1;SDS_P2;PMS_P1;PMS_P2;Temp;Humidity;BMP_temperature;BMP_pressure;BME280_temperature;BME280_humidity;BME280_pressure;Samples;Min_cycle;Max_cycle;Signal;HPM_P1;HPM_P2
2022/01/04 00:02:16;;;;;;;4.97;1.48;;;6.20;99.90;;;;;;4954494;28;20030;-69
2022/01/04 00:04:42;;;;;;;6.85;1.27;;;6.30;99.90;;;;;;4969218;28;20458;-70
2022/01/04 00:07:07;;;;;;;10.40;1.50;;;6.30;99.90;;;;;;4974952;28;20122;-69
2022/01/04 00:09:40;;;;;;;8.60;1.45;;;6.30;99.90;;;;;;4976255;28;20035;-69
2022/01/04 00:14:49;;;;;;;5.68;1.08;;;6.30;99.90;;;;;;4976816;28;20581;-69
2022/01/04 00:17:15;;;;;;;4.95;1.60;;;6.30;99.90;;;;;;4952029;28;20131;-70
2022/01/04 00:19:40;;;;;;;4.22;1.17;;;6.20;99.90;;;;;;4972303;28;20592;-69
2022/01/04 00:22:08;;;;;;;8.02;1.40;;;6.20;99.90;;;;;;4975864;28;20038;-70
2022/01/04 00:24:34;;;;;;;10.40;1.60;;;;;;;;;;4976172;28;20074;-70
2022/01/04 00:27:00;;;;;;;4.55;1.35;;;;;;;;;;4968668;28;20070;-70
2022/01/04 00:29:26;;;;;;;4.40;1.08;;;;;;;;;;4957488;28;20105;-70
2022/01/04 00:31:52;;;;;;;10.23;1.25;;;;;;;;;;4949902;28;20034;-70
2022/01/04 00:34:17;;;;;;;6.60;1.40;;;6.20;99.90;;;;;;4955971;28;20049;-70
2022/01/04 00:36:43;;;;;;;5.95;1.13;;;6.20;99.90;;;;;;4975846;28;20144;-70
2022/01/04 00:39:09;;;;;;;9.10;1.63;;;;;;;;;;4973041;28;20059;-70
2022/01/04 00:41:34;;;;;;;5.03;1.05;;;6.20;99.90;;;;;;4972008;28;20027;-70
2022/01/04 00:44:01;;;;;;;8.98;1.50;;;;;;;;;;4961221;28;20038;-70
2022/01/04 00:46:26;;;;;;;3.35;1.23;;;6.20;99.90;;;;;;4978662;28;20394;-70
2022/01/04 00:49:10;;;;;;;3.70;1.00;;;6.20;99.90;;;;;;4967555;28;20068;-70
2022/01/04 00:51:36;;;;;;;5.13;1.17;;;6.30;99.90;;;;;;4963519;28;20038;-70
2022/01/04 00:54:01;;;;;;;7.47;1.58;;;6.20;99.90;;;;;;4973259;28;20073;-70
2022/01/04 00:56:27;;;;;;;3.63;1.05;;;6.20;99.90;;;;;;4974475;28;20062;-69
2022/01/04 00:58:53;;;;;;;6.55;1.00;;;6.20;99.90;;;;;;4975516;28;20560;-70
2022/01/04 01:01:18;;;;;;;6.20;0.90;;;6.20;99.90;;;;;;4973155;28;20146;-70
2022/01/04 01:03:44;;;;;;;5.28;1.00;;;6.20;99.90;;;;;;4978312;28;20105;-70
2022/01/04 01:06:10;;;;;;;4.03;0.93;;;6.20;99.90;;;;;;4978550;28;20161;-70
2022/01/04 01:08:35;;;;;;;6.95;1.40;;;6.20;99.90;;;;;;4956358;28;20040;-70
2022/01/04 01:11:01;;;;;;;5.20;1.35;;;6.20;99.90;;;;;;4957978;28;20129;-70
2022/01/04 01:13:26;;;;;;;5.53;1.30;;;6.20;99.90;;;;;;4977638;28;20047;-70
2022/01/04 01:15:51;;;;;;;4.68;1.23;;;6.20;99.90;;;;;;4975367;28;20022;-70
2022/01/04 01:18:17;;;;;;;5.45;1.30;;;6.30;99.90;;;;;;4977398;28;20038;-70
2022/01/04 01:20:43;;;;;;;4.32;1.15;;;6.20;99.90;;;;;;4978235;28;20023;-70
2022/01/04 01:23:08;;;;;;;3.92;1.10;;;6.30;99.90;;;;;;4972070;28;20043;-70
2022/01/04 01:25:34;;;;;;;2.95;1.20;;;6.30;99.90;;;;;;4977860;28;20041;-70
2022/01/04 01:27:59;;;;;;;4.30;0.98;;;6.30;99.90;;;;;;4954169;28;20050;-70
2022/01/04 01:30:27;;;;;;;7.22;1.15;;;;;;;;;;4962533;28;20030;-69
2022/01/04 01:32:53;;;;;;;4.30;0.88;;;6.30;99.90;;;;;;4950553;28;20050;-70
2022/01/04 01:35:18;;;;;;;2.70;0.93;;;6.30;99.90;;;;;;4975950;28;20066;-70
2022/01/04 01:37:44;;;;;;;2.78;0.77;;;6.10;99.90;;;;;;4972030;28;20522;-70
2022/01/04 01:40:09;;;;;;;3.83;1.15;;;6.20;99.90;;;;;;4977984;28;20030;-70
2022/01/04 01:42:35;;;;;;;6.20;1.02;;;6.30;99.90;;;;;;4973644;28;20031;-69
2022/01/04 01:45:00;;;;;;;5.50;0.93;;;6.30;99.90;;;;;;4962016;28;20085;-70
2022/01/04 01:47:26;;;;;;;4.90;1.75;;;6.20;99.90;;;;;;4962564;28;20031;-70
2022/01/04 01:49:51;;;;;;;3.72;0.98;;;6.20;99.90;;;;;;4974727;28;20534;-70
2022/01/04 01:52:17;;;;;;;4.47;1.00;;;6.20;99.90;;;;;;4971503;28;20065;-70
2022/01/04 01:54:42;;;;;;;2.03;0.85;;;6.20;99.90;;;;;;4978018;28;20566;-70
2022/01/04 01:57:08;;;;;;;5.43;1.00;;;6.20;99.90;;;;;;4976119;28;20085;-70
2022/01/04 01:59:33;;;;;;;2.03;0.80;;;6.10;99.90;;;;;;4978458;28;20097;-70
2022/01/04 02:01:58;;;;;;;6.25;1.00;;;6.20;99.90;;;;;;4977748;28;20443;-70
2022/01/04 02:04:25;;;;;;;2.65;0.95;;;6.10;99.90;;;;;;4956823;28;20643;-69
2022/01/04 02:06:50;;;;;;;3.95;1.00;;;6.10;99.90;;;;;;4978291;28;20031;-69
2022/01/04 02:09:16;;;;;;;3.17;1.15;;;6.10;99.90;;;;;;4976371;28;20043;-69
2022/01/04 02:11:42;;;;;;;2.17;0.90;;;6.00;99.90;;;;;;4979169;28;20053;-69
2022/01/04 02:14:07;;;;;;;3.55;0.90;;;6.00;99.90;;;;;;4957948;28;20093;-70
2022/01/04 02:16:33;;;;;;;1.98;0.80;;;6.00;99.90;;;;;;4978933;28;20041;-70
2022/01/04 02:18:58;;;;;;;4.85;0.82;;;6.00;99.90;;;;;;4971572;28;20106;-70
2022/01/04 02:21:24;;;;;;;4.95;0.70;;;6.00;99.90;;;;;;4975252;28;20030;-70
2022/01/04 02:23:49;;;;;;;2.55;0.95;;;6.40;99.90;;;;;;4941222;28;20074;-70
2022/01/04 02:26:15;;;;;;;2.85;0.90;;;;;;;;;;4977354;28;20031;-70
2022/01/04 02:28:41;;;;;;;6.47;0.95;;;;;;;;;;4976776;28;20037;-69
2022/01/04 02:31:07;;;;;;;3.10;0.80;;;;;;;;;;4959378;28;20546;-70
2022/01/04 02:33:33;;;;;;;5.53;1.13;;;6.20;99.90;;;;;;4971014;28;20043;-70
2022/01/04 02:35:58;;;;;;;5.30;1.23;;;6.20;99.90;;;;;;4974008;28;20031;-70
2022/01/04 02:38:24;;;;;;;4.95;0.90;;;6.20;99.90;;;;;;4957089;28;20042;-71
2022/01/04 02:40:49;;;;;;;4.75;0.95;;;6.20;99.90;;;;;;4960415;28;20066;-69
2022/01/04 02:43:15;;;;;;;3.13;0.80;;;6.30;99.90;;;;;;4975295;28;20134;-70
2022/01/04 02:45:40;;;;;;;1.92;0.80;;;6.30;99.90;;;;;;4977093;28;20050;-69
2022/01/04 02:48:06;;;;;;;1.70;0.80;;;6.40;99.90;;;;;;4969524;28;20057;-70
2022/01/04 02:50:31;;;;;;;1.70;0.98;;;6.40;99.90;;;;;;4975471;28;20038;-70
2022/01/04 02:52:56;;;;;;;3.63;1.20;;;8.20;99.90;;;;;;4959768;28;20033;-70
2022/01/04 02:55:22;;;;;;;3.58;1.00;;;6.30;99.90;;;;;;4975688;28;20645;-70
2022/01/04 02:57:47;;;;;;;4.60;1.27;;;6.50;99.90;;;;;;4975487;28;20073;-70
2022/01/04 03:00:13;;;;;;;2.28;1.13;;;6.40;99.90;;;;;;4974929;28;20462;-70
2022/01/04 03:02:38;;;;;;;4.78;1.10;;;6.50;99.90;;;;;;4968846;28;20096;-70
2022/01/04 03:05:04;;;;;;;5.85;1.10;;;6.50;99.90;;;;;;4975853;28;20491;-70
2022/01/04 03:07:29;;;;;;;2.83;0.80;;;6.60;99.90;;;;;;4976627;28;20802;-70
2022/01/04 03:09:55;;;;;;;3.95;0.93;;;6.60;99.90;;;;;;4976796;28;20041;-70
2022/01/04 03:12:20;;;;;;;2.13;1.00;;;6.60;99.90;;;;;;4957934;28;20838;-70
2022/01/04 03:14:46;;;;;;;2.20;0.80;;;6.60;99.90;;;;;;4973969;28;20030;-70
2022/01/04 03:17:11;;;;;;;1.88;0.80;;;6.70;99.90;;;;;;4968066;28;20483;-70
2022/01/04 03:19:37;;;;;;;3.78;1.05;;;6.60;99.90;;;;;;4964143;28;20072;-70
2022/01/04 03:22:02;;;;;;;3.28;1.00;;;6.60;99.90;;;;;;4979453;28;20527;-70
2022/01/04 03:24:28;;;;;;;3.88;1.10;;;6.60;99.90;;;;;;4974831;28;20061;-70
2022/01/04 03:26:53;;;;;;;3.97;1.23;;;6.60;99.90;;;;;;4957448;28;20034;-70
2022/01/04 03:29:19;;;;;;;5.00;1.00;;;6.50;99.90;;;;;;4972421;28;20877;-70
2022/01/04 03:31:45;;;;;;;4.10;1.17;;;6.60;99.90;;;;;;4970675;28;20041;-70
2022/01/04 03:34:10;;;;;;;5.13;1.13;;;6.60;99.90;;;;;;4978009;28;20045;-70
2022/01/04 03:36:35;;;;;;;2.83;0.88;;;6.60;99.90;;;;;;4948409;28;20022;-70
2022/01/04 03:39:04;;;;;;;2.65;0.90;;;7.00;99.90;;;;;;4964607;28;20455;-70
2022/01/04 03:41:29;;;;;;;2.35;0.98;;;6.60;99.90;;;;;;4958164;28;20046;-69
2022/01/04 03:43:55;;;;;;;3.17;1.10;;;6.60;99.90;;;;;;4970308;28;20026;-70
2022/01/04 03:46:20;;;;;;;2.58;1.00;;;6.60;99.90;;;;;;4955356;28;20018;-70
2022/01/04 03:48:46;;;;;;;3.30;0.93;;;6.60;99.90;;;;;;4975536;28;20486;-70
2022/01/04 03:51:11;;;;;;;3.35;1.10;;;6.50;99.90;;;;;;4978138;28;20109;-70
2022/01/04 03:53:37;;;;;;;3.13;1.08;;;6.50;99.90;;;;;;4974473;28;20042;-70
2022/01/04 03:56:02;;;;;;;5.85;1.35;;;6.50;99.90;;;;;;4974406;28;20141;-70
2022/01/04 03:58:28;;;;;;;3.08;1.13;;;6.50;99.90;;;;;;4969267;28;20026;-70
2022/01/04 04:00:54;;;;;;;3.28;1.10;;;6.60;99.90;;;;;;4957309;28;20030;-70
2022/01/04 04:03:19;;;;;;;4.40;1.10;;;6.60;99.90;;;;;;4975820;28;20031;-70
2022/01/04 04:05:45;;;;;;;2.92;1.30;;;6.50;99.90;;;;;;4976939;28;20744;-70
2022/01/04 04:08:10;;;;;;;3.13;1.13;;;6.60;99.90;;;;;;4972824;28;20133;-70
2022/01/04 04:10:36;;;;;;;2.38;1.08;;;6.60;99.90;;;;;;4957555;28;20030;-70
2022/01/04 04:13:01;;;;;;;6.22;1.48;;;6.50;99.90;;;;;;4968083;28;20158;-70
2022/01/04 04:15:27;;;;;;;2.72;1.13;;;6.60;99.90;;;;;;4980213;28;20035;-70
2022/01/04 04:17:52;;;;;;;3.67;1.35;;;6.60;99.90;;;;;;4963037;28;20494;-70
2022/01/04 04:20:18;;;;;;;5.68;1.95;;;6.50;99.90;;;;;;4977812;28;20055;-70
2022/01/04 04:22:43;;;;;;;17.20;7.53;;;7.80;99.90;;;;;;4977555;28;20746;-70
2022/01/04 04:25:09;;;;;;;39.80;14.20;;;6.60;99.90;;;;;;4977643;28;20037;-70
2022/01/04 04:27:34;;;;;;;98.15;46.95;;;6.60;99.90;;;;;;4971774;28;20093;-70
2022/01/04 04:30:00;;;;;;;9.80;4.57;;;6.50;99.90;;;;;;4979124;28;20478;-70
2022/01/04 04:32:25;;;;;;;6.35;2.58;;;6.50;99.90;;;;;;4982128;28;20053;-70
2022/01/04 04:34:51;;;;;;;3.88;1.70;;;6.70;99.90;;;;;;4976347;28;20069;-70
2022/01/04 04:37:16;;;;;;;6.82;2.75;;;6.50;99.90;;;;;;4976947;28;20038;-70
2022/01/04 04:39:42;;;;;;;11.45;4.97;;;6.50;99.90;;;;;;4967427;28;20034;-69
2022/01/04 04:42:07;;;;;;;8.35;4.97;;;6.40;99.90;;;;;;4970837;28;20030;-69
2022/01/04 04:44:33;;;;;;;3.65;2.80;;;6.50;99.90;;;;;;4964923;28;20022;-70
2022/01/04 04:46:58;;;;;;;5.07;1.95;;;6.50;99.90;;;;;;4965529;28;20141;-70
2022/01/04 04:49:23;;;;;;;10.57;4.40;;;6.50;99.90;;;;;;4960223;28;20038;-70
2022/01/04 04:51:49;;;;;;;7.68;3.40;;;6.40;99.90;;;;;;4967995;28;20561;-69
2022/01/04 04:54:15;;;;;;;9.70;4.75;;;6.40;99.90;;;;;;4974208;28;20038;-70
2022/01/04 04:56:40;;;;;;;19.67;8.02;;;6.60;99.90;;;;;;4969099;28;20038;-70
2022/01/04 04:59:06;;;;;;;28.13;13.88;;;6.40;99.90;;;;;;4962286;28;20117;-70
2022/01/04 05:01:31;;;;;;;13.27;5.78;;;6.40;99.90;;;;;;4983163;28;20026;-70
2022/01/04 05:03:56;;;;;;;8.75;3.60;;;6.40;99.90;;;;;;4974653;28;20023;-70
2022/01/04 05:06:22;;;;;;;5.07;1.73;;;6.50;99.90;;;;;;4979767;28;20038;-70
2022/01/04 05:08:47;;;;;;;7.57;2.22;;;6.50;99.90;;;;;;4973517;28;20034;-70
2022/01/04 05:11:13;;;;;;;5.88;1.70;;;6.50;99.90;;;;;;4974750;28;20035;-70
2022/01/04 05:13:38;;;;;;;6.63;2.00;;;6.40;99.90;;;;;;4981497;28;20620;-70
2022/01/04 05:16:04;;;;;;;6.57;1.60;;;6.40;99.90;;;;;;4979694;28;20033;-70
2022/01/04 05:18:29;;;;;;;2.60;1.23;;;8.00;99.90;;;;;;4958334;28;20046;-70
2022/01/04 05:20:55;;;;;;;4.80;1.40;;;6.40;99.90;;;;;;4958728;28;20117;-70
2022/01/04 05:23:21;;;;;;;7.43;1.67;;;6.40;99.90;;;;;;4977678;28;20065;-71
2022/01/04 05:25:46;;;;;;;5.07;1.48;;;6.40;99.90;;;;;;4948056;28;20030;-70
2022/01/04 05:28:12;;;;;;;5.55;1.73;;;6.40;99.90;;;;;;4947937;28;20038;-70
2022/01/04 05:30:37;;;;;;;6.55;1.80;;;6.50;99.90;;;;;;4979124;28;20398;-70
2022/01/04 05:33:03;;;;;;;5.38;1.52;;;6.50;99.90;;;;;;4956937;28;20065;-70
2022/01/04 05:35:28;;;;;;;4.05;2.00;;;6.70;99.90;;;;;;4959368;28;20479;-70
2022/01/04 05:37:53;;;;;;;3.67;2.47;;;6.60;99.90;;;;;;4952152;28;20039;-70
2022/01/04 05:40:19;;;;;;;7.20;1.67;;;6.60;99.90;;;;;;4961524;28;20073;-70
2022/01/04 05:42:44;;;;;;;3.38;1.60;;;6.60;99.90;;;;;;4980893;28;20077;-70
2022/01/04 05:45:10;;;;;;;4.07;1.73;;;6.60;99.90;;;;;;4955694;28;20731;-70
2022/01/04 05:47:35;;;;;;;3.17;1.65;;;6.60;99.90;;;;;;4975844;28;20589;-70
2022/01/04 05:50:01;;;;;;;4.18;1.67;;;6.60;99.90;;;;;;4976273;28;20093;-70
2022/01/04 05:52:26;;;;;;;3.95;1.70;;;6.70;99.90;;;;;;4955944;28;20121;-70
2022/01/04 05:54:52;;;;;;;4.78;1.67;;;6.70;99.90;;;;;;4980460;28;20038;-70
2022/01/04 05:57:18;;;;;;;6.35;2.00;;;6.80;99.90;;;;;;4960114;28;20042;-70
2022/01/04 05:59:43;;;;;;;8.27;1.95;;;6.70;99.90;;;;;;4966551;28;20121;-70
2022/01/04 06:02:09;;;;;;;3.42;2.00;;;6.80;99.90;;;;;;4956573;28;20040;-69
2022/01/04 06:04:34;;;;;;;4.63;1.60;;;6.90;99.90;;;;;;4959139;28;20030;-70
2022/01/04 06:07:00;;;;;;;3.97;1.52;;;6.90;99.90;;;;;;4935037;28;20042;-69
2022/01/04 06:09:29;;;;;;;5.55;2.05;;;6.90;99.90;;;;;;4961989;28;20393;-70
2022/01/04 06:11:59;;;;;;;9.73;2.72;;;6.90;99.90;;;;;;4959956;28;20472;-70
2022/01/04 06:17:09;;;;;;;2.72;1.65;;;6.90;99.90;;;;;;4975366;28;20089;-70
2022/01/04 06:19:34;;;;;;;8.45;2.25;;;7.00;99.90;;;;;;4953916;28;20577;-70
2022/01/04 06:22:00;;;;;;;3.78;1.90;;;8.40;99.90;;;;;;4959863;28;20109;-70
2022/01/04 06:24:25;;;;;;;2.55;1.52;;;6.90;99.90;;;;;;4980717;28;20034;-70
2022/01/04 06:26:52;;;;;;;2.80;2.00;;;6.90;99.90;;;;;;4966543;28;20057;-70
2022/01/04 06:29:19;;;;;;;4.05;1.70;;;6.90;99.90;;;;;;4963007;28;20038;-70
2022/01/04 06:31:45;;;;;;;6.15;1.80;;;6.90;99.90;;;;;;4980871;28;20121;-69
2022/01/04 06:34:11;;;;;;;6.93;1.70;;;7.00;99.90;;;;;;4956929;28;20133;-69
2022/01/04 06:36:36;;;;;;;5.10;2.42;;;7.00;99.90;;;;;;4961374;28;20065;-70
2022/01/04 06:39:02;;;;;;;4.72;1.88;;;7.00;99.90;;;;;;4974846;28;20530;-69
2022/01/04 06:41:27;;;;;;;10.85;1.77;;;7.00;99.90;;;;;;4964854;28;20030;-69
2022/01/04 06:43:53;;;;;;;2.70;1.50;;;7.00;99.90;;;;;;4963107;28;20485;-70
2022/01/04 06:46:18;;;;;;;6.65;1.90;;;7.00;99.90;;;;;;4956339;28;20034;-70
2022/01/04 06:48:44;;;;;;;6.55;2.30;;;7.00;99.90;;;;;;4970629;28;20030;-69
2022/01/04 06:51:09;;;;;;;6.68;1.60;;;7.00;99.90;;;;;;4959902;28;20423;-70
2022/01/04 06:53:35;;;;;;;3.97;1.20;;;7.10;99.90;;;;;;4962353;28;20034;-70
2022/01/04 06:56:00;;;;;;;2.97;1.30;;;7.50;99.90;;;;;;4963469;28;20038;-70
2022/01/04 06:58:26;;;;;;;4.97;1.45;;;7.10;99.90;;;;;;4964173;28;20042;-69
2022/01/04 07:00:51;;;;;;;2.60;1.30;;;7.10;99.90;;;;;;4956454;28;20026;-70
2022/01/04 07:03:17;;;;;;;3.10;1.50;;;7.20;99.90;;;;;;4974583;28;20054;-70
2022/01/04 07:05:42;;;;;;;3.33;1.20;;;7.20;99.90;;;;;;4947940;28;20425;-69
2022/01/04 07:08:07;;;;;;;3.53;1.25;;;7.30;99.90;;;;;;4980998;28;20034;-69
2022/01/04 07:10:33;;;;;;;3.83;1.17;;;7.30;99.90;;;;;;4985756;28;20769;-69
2022/01/04 07:12:58;;;;;;;4.97;1.45;;;7.30;99.90;;;;;;4975188;28;20130;-69
2022/01/04 07:15:24;;;;;;;3.28;1.00;;;7.30;99.90;;;;;;4979649;28;20042;-69
2022/01/04 07:17:49;;;;;;;2.22;1.13;;;7.20;99.90;;;;;;4975839;28;20066;-69
2022/01/04 07:20:15;;;;;;;4.10;1.17;;;7.30;99.90;;;;;;4961425;28;20031;-69
2022/01/04 07:22:40;;;;;;;1.52;1.00;;;7.30;99.90;;;;;;4978178;28;20471;-69
2022/01/04 07:25:06;;;;;;;4.68;1.08;;;7.20;99.90;;;;;;4979047;28;20046;-69
2022/01/04 07:27:31;;;;;;;3.47;1.20;;;7.60;99.90;;;;;;4974766;28;20045;-69
2022/01/04 07:29:57;;;;;;;3.60;1.23;;;7.30;99.90;;;;;;4945543;28;20026;-69
2022/01/04 07:32:22;;;;;;;3.10;1.30;;;7.30;99.90;;;;;;4974480;28;20027;-69
2022/01/04 07:34:48;;;;;;;3.40;1.02;;;7.30;99.90;;;;;;4981806;28;20698;-68
2022/01/04 07:37:14;;;;;;;2.35;1.10;;;7.20;99.90;;;;;;4979351;28;20065;-69
2022/01/04 07:39:39;;;;;;;4.80;1.10;;;7.20;99.90;;;;;;4985210;28;20120;-69
2022/01/04 07:42:05;;;;;;;1.98;1.00;;;7.20;99.90;;;;;;4957884;28;20041;-69
2022/01/04 07:44:32;;;;;;;2.80;1.27;;;7.20;99.90;;;;;;4973014;28;20082;-68
2022/01/04 07:46:58;;;;;;;2.33;1.15;;;7.20;99.90;;;;;;4975618;28;20026;-69
2022/01/04 07:49:23;;;;;;;1.70;1.00;;;7.20;99.90;;;;;;4980411;28;20046;-69
2022/01/04 07:51:48;;;;;;;1.80;1.02;;;7.10;99.90;;;;;;4962235;28;20029;-69
2022/01/04 07:54:14;;;;;;;1.98;1.25;;;8.00;99.90;;;;;;4976880;28;20796;-68
2022/01/04 07:56:39;;;;;;;4.55;1.50;;;7.20;99.90;;;;;;4976368;28;20073;-69
2022/01/04 07:59:05;;;;;;;3.08;1.40;;;7.20;99.90;;;;;;4973611;28;20039;-69
2022/01/04 08:01:31;;;;;;;3.20;1.63;;;7.80;99.90;;;;;;4964233;28;20466;-69
2022/01/04 08:03:57;;;;;;;3.80;1.30;;;7.10;99.90;;;;;;4956518;28;20022;-69
2022/01/04 08:06:22;;;;;;;2.00;0.98;;;7.20;99.90;;;;;;4979107;28;20406;-69
2022/01/04 08:08:48;;;;;;;2.15;1.00;;;7.20;99.90;;;;;;4974855;28;20030;-69
2022/01/04 08:11:13;;;;;;;4.50;1.35;;;7.20;99.90;;;;;;4977662;28;20030;-69
2022/01/04 08:13:39;;;;;;;7.10;1.33;;;7.30;99.90;;;;;;4954015;28;20042;-69
2022/01/04 08:16:04;;;;;;;1.73;1.10;;;7.30;99.90;;;;;;4978155;28;20869;-69
2022/01/04 08:18:30;;;;;;;1.98;0.90;;;7.30;99.90;;;;;;4977644;28;20037;-69
2022/01/04 08:20:58;;;;;;;1.67;1.02;;;7.30;99.90;;;;;;4980463;28;20034;-69
2022/01/04 08:23:23;;;;;;;2.15;0.88;;;7.30;99.90;;;;;;4960092;28;20038;-69
2022/01/04 08:25:49;;;;;;;1.00;0.73;;;7.30;99.90;;;;;;4955130;28;20023;-69
2022/01/04 08:28:14;;;;;;;1.98;1.00;;;7.30;99.90;;;;;;4970277;28;20523;-69
2022/01/04 08:30:42;;;;;;;3.25;1.20;;;7.40;99.90;;;;;;4978637;28;20084;-70
2022/01/04 08:33:07;;;;;;;3.72;1.17;;;7.60;99.90;;;;;;4959853;28;20039;-70
2022/01/04 08:35:32;;;;;;;1.27;0.90;;;7.30;99.90;;;;;;4959363;28;20504;-69
2022/01/04 08:37:58;;;;;;;6.93;3.15;;;7.30;99.90;;;;;;4982758;28;20036;-69
2022/01/04 08:40:23;;;;;;;2.15;0.98;;;7.40;99.90;;;;;;4973630;28;20034;-69
2022/01/04 08:42:49;;;;;;;1.98;1.10;;;7.40;99.90;;;;;;4973586;28;20561;-72
2022/01/04 08:45:15;;;;;;;3.55;1.20;;;7.40;99.90;;;;;;4976060;28;20027;-71
2022/01/04 08:47:41;;;;;;;5.43;1.67;;;7.40;99.90;;;;;;4961117;28;20049;-71
2022/01/04 08:50:06;;;;;;;1.83;0.70;;;7.40;99.90;;;;;;4976248;28;20121;-72
2022/01/04 08:52:31;;;;;;;2.92;0.95;;;7.40;99.90;;;;;;4959405;28;20125;-70
2022/01/04 08:54:57;;;;;;;2.17;0.85;;;7.40;99.90;;;;;;4955925;28;20034;-70
2022/01/04 08:57:23;;;;;;;0.65;0.50;;;7.50;99.90;;;;;;4977155;28;20035;-70
2022/01/04 08:59:48;;;;;;;1.67;0.80;;;7.50;99.90;;;;;;4975051;28;20030;-70
2022/01/04 09:02:14;;;;;;;3.28;1.00;;;7.50;99.90;;;;;;4979128;28;20038;-69
2022/01/04 09:04:39;;;;;;;2.15;0.95;;;7.50;99.90;;;;;;4985651;28;20451;-70
2022/01/04 09:07:05;;;;;;;1.45;0.90;;;7.40;99.90;;;;;;4978596;28;20034;-70
2022/01/04 09:09:30;;;;;;;2.65;1.17;;;7.40;99.90;;;;;;4977234;28;20061;-68
2022/01/04 09:11:56;;;;;;;3.83;1.70;;;7.40;99.90;;;;;;4983845;28;20039;-68
2022/01/04 09:14:41;;;;;;;4.03;1.48;;;7.40;99.90;;;;;;4984282;28;20081;-68
2022/01/04 09:19:50;;;;;;;2.00;1.27;;;7.40;99.90;;;;;;4974007;28;20092;-68
2022/01/04 09:22:16;;;;;;;1.42;1.08;;;7.50;99.90;;;;;;4978179;28;20027;-68
2022/01/04 09:24:41;;;;;;;2.90;1.30;;;7.50;99.90;;;;;;4975147;28;20973;-68
2022/01/04 09:27:07;;;;;;;2.35;0.90;;;7.40;99.90;;;;;;4980815;28;20042;-68
2022/01/04 09:29:32;;;;;;;2.28;1.00;;;7.40;99.90;;;;;;4962347;28;20030;-68
2022/01/04 09:31:58;;;;;;;1.50;0.93;;;7.50;99.90;;;;;;4965272;28;20133;-68
2022/01/04 09:34:23;;;;;;;1.42;0.80;;;7.40;99.90;;;;;;4975911;28;20031;-69
2022/01/04 09:36:49;;;;;;;3.78;1.10;;;7.40;99.90;;;;;;4976844;28;20043;-67
2022/01/04 09:39:15;;;;;;;4.18;1.08;;;7.40;99.90;;;;;;4975576;28;20104;-68
2022/01/04 09:41:40;;;;;;;2.10;1.42;;;7.50;99.90;;;;;;4979783;28;20061;-68
2022/01/04 09:44:06;;;;;;;7.90;4.13;;;7.50;99.90;;;;;;4981442;28;20089;-68
2022/01/04 09:46:31;;;;;;;4.32;2.08;;;7.60;99.90;;;;;;4977022;28;20042;-68
2022/01/04 09:48:57;;;;;;;3.95;2.03;;;7.50;99.90;;;;;;4974435;28;20034;-68
2022/01/04 09:51:22;;;;;;;1.73;1.25;;;7.70;99.90;;;;;;4957047;28;20034;-68
2022/01/04 09:53:48;;;;;;;1.80;1.00;;;7.60;99.90;;;;;;4986659;28;20030;-68
2022/01/04 09:56:14;;;;;;;1.67;0.98;;;7.60;99.90;;;;;;4963019;28;20064;-68
2022/01/04 09:58:39;;;;;;;0.90;0.70;;;7.60;99.90;;;;;;4959271;28;20516;-67
2022/01/04 10:01:04;;;;;;;1.50;1.02;;;7.50;99.90;;;;;;4975795;28;20513;-68
2022/01/04 10:03:30;;;;;;;2.88;1.20;;;7.50;99.90;;;;;;4941227;28;20113;-68
2022/01/04 10:05:55;;;;;;;14.35;8.20;;;7.50;99.90;;;;;;4954574;28;20491;-68
2022/01/04 10:08:21;;;;;;;9.95;5.22;;;7.50;99.90;;;;;;4975126;28;20060;-68
2022/01/04 10:10:46;;;;;;;6.80;4.32;;;7.40;99.90;;;;;;4977915;28;20125;-68
2022/01/04 10:13:12;;;;;;;1.90;1.40;;;7.40;99.90;;;;;;4961488;28;20031;-68
2022/01/04 10:15:37;;;;;;;2.00;0.70;;;7.40;99.90;;;;;;4977343;28;20514;-68
2022/01/04 10:18:03;;;;;;;1.35;0.75;;;7.30;99.90;;;;;;4963219;28;20062;-68
2022/01/04 10:20:28;;;;;;;3.95;2.63;;;7.30;99.90;;;;;;4956434;28;20027;-68
2022/01/04 10:22:54;;;;;;;7.95;5.45;;;7.30;99.90;;;;;;4979093;28;20763;-67
2022/01/04 10:25:20;;;;;;;4.45;2.28;;;7.30;99.90;;;;;;4981399;28;20046;-68
2022/01/04 10:27:45;;;;;;;3.08;1.38;;;7.30;99.90;;;;;;4966431;28;20033;-68
2022/01/04 10:30:11;;;;;;;3.30;1.10;;;7.30;99.90;;;;;;4953902;28;20545;-68
2022/01/04 10:32:36;;;;;;;2.28;1.10;;;7.20;99.90;;;;;;4962091;28;20030;-66
2022/01/04 10:35:02;;;;;;;1.95;1.02;;;7.20;99.90;;;;;;4959353;28;20035;-67
2022/01/04 10:37:27;;;;;;;3.20;0.90;;;7.20;99.90;;;;;;4983581;28;20533;-67
2022/01/04 10:39:52;;;;;;;0.80;0.70;;;7.20;99.90;;;;;;4983464;28;20033;-68
2022/01/04 10:42:18;;;;;;;3.20;2.05;;;7.20;99.90;;;;;;4981147;28;20026;-68
2022/01/04 10:44:44;;;;;;;1.48;0.88;;;7.30;99.90;;;;;;4978578;28;20038;-68
2022/01/04 10:47:09;;;;;;;0.88;0.65;;;7.30;99.90;;;;;;4960215;28;20605;-68
2022/01/04 10:49:35;;;;;;;0.88;0.60;;;7.30;99.90;;;;;;4980735;28;20548;-68
2022/01/04 10:52:00;;;;;;;1.92;1.10;;;7.30;99.90;;;;;;4984877;28;20039;-68
2022/01/04 10:54:26;;;;;;;2.20;0.90;;;7.50;99.90;;;;;;4960084;28;20031;-68
2022/01/04 10:56:51;;;;;;;4.22;1.30;;;7.40;99.90;;;;;;4961272;28;20042;-68
2022/01/04 10:59:17;;;;;;;2.88;1.75;;;7.40;99.90;;;;;;4972282;28;20380;-66
2022/01/04 11:01:42;;;;;;;1.90;1.05;;;7.40;99.90;;;;;;4960471;28;20121;-68
2022/01/04 11:04:08;;;;;;;2.13;0.95;;;7.30;99.90;;;;;;4976127;28;20078;-69
2022/01/04 11:06:33;;;;;;;2.30;1.17;;;7.20;99.90;;;;;;4963074;28;20031;-70
2022/01/04 11:08:59;;;;;;;3.90;2.00;;;7.20;99.90;;;;;;4982507;28;20034;-70
2022/01/04 11:11:24;;;;;;;2.83;1.33;;;7.20;99.90;;;;;;4960918;28;20040;-70
2022/01/04 11:13:53;;;;;;;3.70;1.55;;;7.10;99.90;;;;;;4972533;28;20110;-70
2022/01/04 11:16:19;;;;;;;1.73;1.25;;;7.10;99.90;;;;;;4979360;28;20038;-69
2022/01/04 11:18:47;;;;;;;2.00;1.42;;;7.00;99.90;;;;;;4982459;28;20037;-70
2022/01/04 11:21:12;;;;;;;3.15;1.45;;;7.00;99.90;;;;;;4958779;28;20038;-70
2022/01/04 11:23:38;;;;;;;2.60;1.60;;;7.00;99.90;;;;;;4987524;28;20029;-70
2022/01/04 11:26:04;;;;;;;2.58;1.42;;;7.00;99.90;;;;;;4981693;28;20370;-70
2022/01/04 11:28:29;;;;;;;4.40;1.40;;;7.10;99.90;;;;;;4979098;28;20298;-70
2022/01/04 11:30:54;;;;;;;2.17;1.40;;;7.10;99.90;;;;;;4982137;28;20062;-69
2022/01/04 11:33:20;;;;;;;2.75;1.23;;;7.10;99.90;;;;;;4987939;28;20169;-70
2022/01/04 11:35:45;;;;;;;2.28;1.02;;;7.20;99.90;;;;;;4973513;28;20504;-70
2022/01/04 11:38:11;;;;;;;2.90;1.58;;;7.20;99.90;;;;;;4985031;28;20048;-70
2022/01/04 11:40:36;;;;;;;2.70;1.50;;;8.30;99.90;;;;;;4978695;28;20029;-69
2022/01/04 11:43:03;;;;;;;2.88;1.38;;;7.40;99.90;;;;;;4978249;28;20047;-69
2022/01/04 11:45:28;;;;;;;2.05;1.27;;;7.40;99.90;;;;;;4974796;28;20046;-70
2022/01/04 11:47:54;;;;;;;2.50;1.30;;;7.40;99.90;;;;;;4977862;28;20030;-69
2022/01/04 11:50:20;;;;;;;3.20;1.20;;;7.40;99.90;;;;;;4975392;28;20116;-69
2022/01/04 11:52:46;;;;;;;2.28;1.48;;;7.50;99.90;;;;;;4981595;28;20088;-69
2022/01/04 11:55:11;;;;;;;3.22;1.40;;;7.60;99.90;;;;;;4962827;28;20724;-69
2022/01/04 11:57:37;;;;;;;1.92;1.60;;;7.60;99.90;;;;;;4974861;28;20038;-70
2022/01/04 12:00:04;;;;;;;2.38;1.60;;;7.60;99.90;;;;;;4979151;28;20041;-70
2022/01/04 12:02:39;;;;;;;2.53;1.30;;;7.60;99.90;;;;;;4980668;28;20034;-70
2022/01/04 12:05:04;;;;;;;1.73;1.60;;;7.70;99.90;;;;;;4973445;28;20039;-69
2022/01/04 12:07:30;;;;;;;3.45;1.80;;;7.70;99.90;;;;;;4963217;28;20045;-69
2022/01/04 12:09:55;;;;;;;2.00;1.42;;;7.80;99.90;;;;;;4959383;28;20033;-69
2022/01/04 12:12:21;;;;;;;3.20;1.63;;;7.80;99.90;;;;;;4976139;28;20487;-68
2022/01/04 12:14:46;;;;;;;2.08;1.63;;;7.90;99.90;;;;;;4985425;28;20073;-69
2022/01/04 12:17:12;;;;;;;2.55;1.60;;;7.90;99.90;;;;;;4956998;28;20074;-69
2022/01/04 12:19:38;;;;;;;2.78;1.80;;;7.80;99.90;;;;;;4978203;28;20042;-69
2022/01/04 12:22:03;;;;;;;2.80;1.75;;;7.80;99.90;;;;;;4973438;28;20027;-69
2022/01/04 12:24:29;;;;;;;2.75;1.60;;;7.80;99.90;;;;;;4952708;28;20045;-68
2022/01/04 12:26:55;;;;;;;2.70;1.70;;;7.70;99.90;;;;;;4959324;28;20148;-69
2022/01/04 12:29:20;;;;;;;3.55;1.90;;;7.60;99.90;;;;;;4983068;28;20117;-69
2022/01/04 12:31:46;;;;;;;5.78;2.20;;;7.60;99.90;;;;;;4976214;28;20030;-68
2022/01/04 12:34:11;;;;;;;3.95;2.20;;;7.60;99.90;;;;;;4973814;28;20042;-69
2022/01/04 12:36:37;;;;;;;3.60;1.90;;;7.60;99.90;;;;;;4960529;28;20057;-70
2022/01/04 12:39:02;;;;;;;4.43;2.42;;;7.60;99.90;;;;;;4975325;28;20070;-69
2022/01/04 12:41:30;;;;;;;5.03;2.58;;;7.70;99.90;;;;;;4981405;28;20042;-69
2022/01/04 12:43:55;;;;;;;5.38;2.20;;;7.70;99.90;;;;;;4969444;28;20030;-69
2022/01/04 12:46:21;;;;;;;3.55;2.28;;;7.60;99.90;;;;;;4981951;28;20084;-70
2022/01/04 12:48:47;;;;;;;4.88;2.95;;;7.50;99.90;;;;;;4981353;28;20414;-69
2022/01/04 12:51:12;;;;;;;7.22;2.42;;;7.60;99.90;;;;;;4961643;28;20042;-69
2022/01/04 12:53:38;;;;;;;5.18;2.67;;;7.60;99.90;;;;;;4963740;28;20621;-70
2022/01/04 12:56:04;;;;;;;6.45;2.65;;;7.60;99.90;;;;;;4968884;28;20034;-69
2022/01/04 12:58:29;;;;;;;5.18;3.08;;;7.70;99.90;;;;;;4982872;28;20455;-72
2022/01/04 13:00:54;;;;;;;13.60;6.85;;;7.70;99.90;;;;;;4950463;28;20062;-69